sensor_id;sensor_type;location;lat;lon;timestamp;P1;durP1;ratioP1;P2;durP2;ratioP2
8716;SDS011;4395;48.554;8.820;2023-04-24T00:01:10;0.70;;;0.65;;
8716;SDS011;4395;48.554;8.820;2023-04-24T00:03:14;1.20;;;0.80;;
8716;SDS011;4395;48.554;8.820;2023-04-24T00:05:17;1.15;;;0.65;;
8716;SDS011;4395;48.554;8.820;2023-04-24T00:07:21;1.52;;;0.75;;
8716;SDS011;4395;48.554;8.820;2023-04-24T00:09:24;1.48;;;0.80;;
8716;SDS011;4395;48.554;8.820;2023-04-24T00:11:27;0.93;;;0.68;;
8716;SDS011;4395;48.554;8.820;2023-04-24T00:13:30;2.45;;;0.75;;
8716;SDS011;4395;48.554;8.820;2023-04-24T00:15:32;1.00;;;0.70;;
8716;SDS011;4395;48.554;8.820;2023-04-24T00:17:35;1.45;;;0.80;;
8716;SDS011;4395;48.554;8.820;2023-04-24T00:19:38;0.93;;;0.75;;
8716;SDS011;4395;48.554;8.820;2023-04-24T00:21:41;1.05;;;0.95;;
8716;SDS011;4395;48.554;8.820;2023-04-24T00:23:45;1.70;;;0.90;;
8716;SDS011;4395;48.554;8.820;2023-04-24T00:25:48;3.53;;;0.95;;
8716;SDS011;4395;48.554;8.820;2023-04-24T00:27:51;3.70;;;1.17;;
8716;SDS011;4395;48.554;8.820;2023-04-24T00:29:54;1.17;;;0.80;;
8716;SDS011;4395;48.554;8.820;2023-04-24T00:31:57;0.73;;;0.73;;
8716;SDS011;4395;48.554;8.820;2023-04-24T00:34:00;1.83;;;0.73;;
8716;SDS011;4395;48.554;8.820;2023-04-24T00:36:03;2.00;;;0.90;;
8716;SDS011;4395;48.554;8.820;2023-04-24T00:38:07;1.02;;;0.70;;
8716;SDS011;4395;48.554;8.820;2023-04-24T00:40:11;0.80;;;0.80;;
8716;SDS011;4395;48.554;8.820;2023-04-24T00:42:14;0.85;;;0.65;;
8716;SDS011;4395;48.554;8.820;2023-04-24T00:44:17;1.23;;;0.88;;
8716;SDS011;4395;48.554;8.820;2023-04-24T00:46:20;1.08;;;0.60;;
8716;SDS011;4395;48.554;8.820;2023-04-24T00:48:24;1.42;;;0.65;;
8716;SDS011;4395;48.554;8.820;2023-04-24T00:50:27;3.03;;;0.80;;
8716;SDS011;4395;48.554;8.820;2023-04-24T00:52:31;0.70;;;0.70;;
8716;SDS011;4395;48.554;8.820;2023-04-24T00:54:34;1.50;;;0.52;;
8716;SDS011;4395;48.554;8.820;2023-04-24T00:56:39;2.22;;;1.00;;
8716;SDS011;4395;48.554;8.820;2023-04-24T00:58:44;1.27;;;0.60;;
8716;SDS011;4395;48.554;8.820;2023-04-24T01:00:47;1.25;;;0.70;;
8716;SDS011;4395;48.554;8.820;2023-04-24T01:02:51;0.60;;;0.60;;
8716;SDS011;4395;48.554;8.820;2023-04-24T01:04:55;1.67;;;0.60;;
8716;SDS011;4395;48.554;8.820;2023-04-24T01:06:58;1.40;;;0.60;;
8716;SDS011;4395;48.554;8.820;2023-04-24T01:09:01;3.17;;;0.80;;
8716;SDS011;4395;48.554;8.820;2023-04-24T01:11:04;1.90;;;0.85;;
8716;SDS011;4395;48.554;8.820;2023-04-24T01:13:09;0.93;;;0.70;;
8716;SDS011;4395;48.554;8.820;2023-04-24T01:15:12;0.70;;;0.70;;
8716;SDS011;4395;48.554;8.820;2023-04-24T01:17:16;0.70;;;0.60;;
8716;SDS011;4395;48.554;8.820;2023-04-24T01:19:19;1.13;;;0.68;;
8716;SDS011;4395;48.554;8.820;2023-04-24T01:21:22;0.63;;;0.50;;
8716;SDS011;4395;48.554;8.820;2023-04-24T01:23:27;1.50;;;0.75;;
8716;SDS011;4395;48.554;8.820;2023-04-24T01:25:30;1.60;;;0.80;;
8716;SDS011;4395;48.554;8.820;2023-04-24T01:27:33;1.17;;;0.73;;
8716;SDS011;4395;48.554;8.820;2023-04-24T01:29:36;1.88;;;0.70;;
8716;SDS011;4395;48.554;8.820;2023-04-24T01:31:39;1.67;;;1.00;;
8716;SDS011;4395;48.554;8.820;2023-04-24T01:33:42;1.10;;;0.50;;
8716;SDS011;4395;48.554;8.820;2023-04-24T01:35:45;1.85;;;0.70;;
8716;SDS011;4395;48.554;8.820;2023-04-24T01:37:48;1.20;;;0.70;;
8716;SDS011;4395;48.554;8.820;2023-04-24T01:39:52;1.50;;;1.00;;
8716;SDS011;4395;48.554;8.820;2023-04-24T01:41:55;3.60;;;0.90;;
8716;SDS011;4395;48.554;8.820;2023-04-24T01:43:58;0.63;;;0.60;;
8716;SDS011;4395;48.554;8.820;2023-04-24T01:46:01;1.42;;;0.70;;
8716;SDS011;4395;48.554;8.820;2023-04-24T01:48:05;0.90;;;0.77;;
8716;SDS011;4395;48.554;8.820;2023-04-24T01:50:08;2.08;;;0.63;;
8716;SDS011;4395;48.554;8.820;2023-04-24T01:52:13;2.63;;;0.82;;
8716;SDS011;4395;48.554;8.820;2023-04-24T01:54:15;0.93;;;0.90;;
8716;SDS011;4395;48.554;8.820;2023-04-24T01:56:20;1.50;;;0.77;;
8716;SDS011;4395;48.554;8.820;2023-04-24T01:58:24;1.13;;;0.80;;
8716;SDS011;4395;48.554;8.820;2023-04-24T02:00:27;1.70;;;0.80;;
8716;SDS011;4395;48.554;8.820;2023-04-24T02:02:30;0.80;;;0.80;;
8716;SDS011;4395;48.554;8.820;2023-04-24T02:04:33;1.40;;;0.75;;
8716;SDS011;4395;48.554;8.820;2023-04-24T02:06:36;1.05;;;0.60;;
8716;SDS011;4395;48.554;8.820;2023-04-24T02:08:39;1.02;;;0.80;;
8716;SDS011;4395;48.554;8.820;2023-04-24T02:10:42;1.00;;;0.70;;
8716;SDS011;4395;48.554;8.820;2023-04-24T02:12:46;1.00;;;0.75;;
8716;SDS011;4395;48.554;8.820;2023-04-24T02:14:49;1.38;;;0.70;;
8716;SDS011;4395;48.554;8.820;2023-04-24T02:16:52;1.65;;;0.90;;
8716;SDS011;4395;48.554;8.820;2023-04-24T02:18:55;0.88;;;0.88;;
8716;SDS011;4395;48.554;8.820;2023-04-24T02:20:58;2.78;;;0.93;;
8716;SDS011;4395;48.554;8.820;2023-04-24T02:23:01;1.45;;;0.90;;
8716;SDS011;4395;48.554;8.820;2023-04-24T02:25:04;1.17;;;0.90;;
8716;SDS011;4395;48.554;8.820;2023-04-24T02:27:07;1.67;;;0.80;;
8716;SDS011;4395;48.554;8.820;2023-04-24T02:29:12;1.08;;;0.80;;
8716;SDS011;4395;48.554;8.820;2023-04-24T02:31:15;0.98;;;0.95;;
8716;SDS011;4395;48.554;8.820;2023-04-24T02:33:17;0.73;;;0.73;;
8716;SDS011;4395;48.554;8.820;2023-04-24T02:35:21;1.20;;;0.77;;
8716;SDS011;4395;48.554;8.820;2023-04-24T02:37:24;2.08;;;0.93;;
8716;SDS011;4395;48.554;8.820;2023-04-24T02:39:26;2.17;;;0.98;;
8716;SDS011;4395;48.554;8.820;2023-04-24T02:41:29;2.95;;;1.15;;
8716;SDS011;4395;48.554;8.820;2023-04-24T02:43:34;1.17;;;0.80;;
8716;SDS011;4395;48.554;8.820;2023-04-24T02:45:38;2.15;;;0.88;;
8716;SDS011;4395;48.554;8.820;2023-04-24T02:47:41;1.85;;;0.60;;
8716;SDS011;4395;48.554;8.820;2023-04-24T02:49:43;2.10;;;0.90;;
8716;SDS011;4395;48.554;8.820;2023-04-24T02:51:47;0.68;;;0.63;;
8716;SDS011;4395;48.554;8.820;2023-04-24T02:53:49;2.63;;;1.08;;
8716;SDS011;4395;48.554;8.820;2023-04-24T02:55:52;1.30;;;0.90;;
8716;SDS011;4395;48.554;8.820;2023-04-24T02:57:55;1.42;;;0.80;;
8716;SDS011;4395;48.554;8.820;2023-04-24T02:59:58;1.65;;;0.70;;
8716;SDS011;4395;48.554;8.820;2023-04-24T03:02:02;1.33;;;0.68;;
8716;SDS011;4395;48.554;8.820;2023-04-24T03:04:05;2.55;;;0.88;;
8716;SDS011;4395;48.554;8.820;2023-04-24T03:06:08;0.95;;;0.68;;
8716;SDS011;4395;48.554;8.820;2023-04-24T03:08:11;2.33;;;0.80;;
8716;SDS011;4395;48.554;8.820;2023-04-24T03:10:16;3.08;;;0.85;;
8716;SDS011;4395;48.554;8.820;2023-04-24T03:12:19;2.63;;;0.90;;
8716;SDS011;4395;48.554;8.820;2023-04-24T03:14:22;2.30;;;0.90;;
8716;SDS011;4395;48.554;8.820;2023-04-24T03:16:24;0.73;;;0.73;;
8716;SDS011;4395;48.554;8.820;2023-04-24T03:18:30;1.10;;;0.90;;
8716;SDS011;4395;48.554;8.820;2023-04-24T03:20:33;1.60;;;0.73;;
8716;SDS011;4395;48.554;8.820;2023-04-24T03:22:38;1.33;;;0.73;;
8716;SDS011;4395;48.554;8.820;2023-04-24T03:24:42;1.85;;;0.82;;
8716;SDS011;4395;48.554;8.820;2023-04-24T03:26:46;2.78;;;1.40;;
8716;SDS011;4395;48.554;8.820;2023-04-24T03:29:07;2.35;;;0.52;;
8716;SDS011;4395;48.554;8.820;2023-04-24T03:31:10;3.22;;;0.68;;
8716;SDS011;4395;48.554;8.820;2023-04-24T03:33:13;1.92;;;0.50;;
8716;SDS011;4395;48.554;8.820;2023-04-24T03:35:27;1.85;;;0.80;;
8716;SDS011;4395;48.554;8.820;2023-04-24T03:37:34;0.50;;;0.50;;
8716;SDS011;4395;48.554;8.820;2023-04-24T03:40:00;0.80;;;0.60;;
8716;SDS011;4395;48.554;8.820;2023-04-24T03:42:04;1.08;;;0.50;;
8716;SDS011;4395;48.554;8.820;2023-04-24T03:44:18;0.98;;;0.47;;
8716;SDS011;4395;48.554;8.820;2023-04-24T03:46:21;0.50;;;0.40;;
8716;SDS011;4395;48.554;8.820;2023-04-24T03:48:28;1.40;;;0.40;;
8716;SDS011;4395;48.554;8.820;2023-04-24T03:50:33;0.85;;;0.38;;
8716;SDS011;4395;48.554;8.820;2023-04-24T03:52:35;1.75;;;0.57;;
8716;SDS011;4395;48.554;8.820;2023-04-24T03:54:39;0.20;;;0.20;;
8716;SDS011;4395;48.554;8.820;2023-04-24T03:56:41;3.83;;;1.30;;
8716;SDS011;4395;48.554;8.820;2023-04-24T03:58:45;0.73;;;0.30;;
8716;SDS011;4395;48.554;8.820;2023-04-24T04:00:48;0.50;;;0.50;;
8716;SDS011;4395;48.554;8.820;2023-04-24T04:03:15;1.35;;;0.52;;
8716;SDS011;4395;48.554;8.820;2023-04-24T04:05:18;0.47;;;0.43;;
8716;SDS011;4395;48.554;8.820;2023-04-24T04:07:23;1.20;;;0.47;;
8716;SDS011;4395;48.554;8.820;2023-04-24T04:09:26;1.35;;;0.47;;
8716;SDS011;4395;48.554;8.820;2023-04-24T04:11:29;0.85;;;0.30;;
8716;SDS011;4395;48.554;8.820;2023-04-24T04:13:32;1.95;;;0.68;;
8716;SDS011;4395;48.554;8.820;2023-04-24T04:15:36;0.82;;;0.60;;
8716;SDS011;4395;48.554;8.820;2023-04-24T04:17:39;0.80;;;0.50;;
8716;SDS011;4395;48.554;8.820;2023-04-24T04:19:42;2.35;;;1.10;;
8716;SDS011;4395;48.554;8.820;2023-04-24T04:21:46;1.58;;;1.17;;
8716;SDS011;4395;48.554;8.820;2023-04-24T04:24:18;2.30;;;1.50;;
8716;SDS011;4395;48.554;8.820;2023-04-24T04:26:22;1.80;;;0.65;;
8716;SDS011;4395;48.554;8.820;2023-04-24T04:28:41;0.55;;;0.55;;
8716;SDS011;4395;48.554;8.820;2023-04-24T04:30:46;1.02;;;0.70;;
8716;SDS011;4395;48.554;8.820;2023-04-24T04:32:50;0.40;;;0.40;;
8716;SDS011;4395;48.554;8.820;2023-04-24T04:34:53;0.38;;;0.38;;
8716;SDS011;4395;48.554;8.820;2023-04-24T04:36:59;0.80;;;0.70;;
8716;SDS011;4395;48.554;8.820;2023-04-24T04:39:26;0.70;;;0.70;;
8716;SDS011;4395;48.554;8.820;2023-04-24T04:41:34;1.70;;;0.90;;
8716;SDS011;4395;48.554;8.820;2023-04-24T04:43:39;2.08;;;1.30;;
8716;SDS011;4395;48.554;8.820;2023-04-24T04:45:42;1.35;;;1.00;;
8716;SDS011;4395;48.554;8.820;2023-04-24T04:48:04;3.00;;;1.75;;
8716;SDS011;4395;48.554;8.820;2023-04-24T04:50:09;1.33;;;1.02;;
8716;SDS011;4395;48.554;8.820;2023-04-24T04:52:13;1.20;;;1.10;;
8716;SDS011;4395;48.554;8.820;2023-04-24T04:54:16;1.83;;;1.15;;
8716;SDS011;4395;48.554;8.820;2023-04-24T04:56:21;1.30;;;1.20;;
8716;SDS011;4395;48.554;8.820;2023-04-24T04:58:23;0.95;;;0.88;;
8716;SDS011;4395;48.554;8.820;2023-04-24T05:00:30;1.20;;;1.10;;
8716;SDS011;4395;48.554;8.820;2023-04-24T05:02:41;1.35;;;1.25;;
8716;SDS011;4395;48.554;8.820;2023-04-24T05:04:45;2.63;;;1.67;;
8716;SDS011;4395;48.554;8.820;2023-04-24T05:06:48;2.80;;;2.33;;
8716;SDS011;4395;48.554;8.820;2023-04-24T05:08:52;5.07;;;3.42;;
8716;SDS011;4395;48.554;8.820;2023-04-24T05:11:09;4.57;;;3.15;;
8716;SDS011;4395;48.554;8.820;2023-04-24T05:13:14;2.17;;;1.90;;
8716;SDS011;4395;48.554;8.820;2023-04-24T05:15:23;2.45;;;1.80;;
8716;SDS011;4395;48.554;8.820;2023-04-24T05:17:26;2.83;;;1.25;;
8716;SDS011;4395;48.554;8.820;2023-04-24T05:19:31;1.38;;;1.10;;
8716;SDS011;4395;48.554;8.820;2023-04-24T05:21:37;2.40;;;1.42;;
8716;SDS011;4395;48.554;8.820;2023-04-24T05:23:42;1.38;;;1.15;;
8716;SDS011;4395;48.554;8.820;2023-04-24T05:25:53;2.10;;;1.90;;
8716;SDS011;4395;48.554;8.820;2023-04-24T05:27:56;2.72;;;1.73;;
8716;SDS011;4395;48.554;8.820;2023-04-24T05:30:00;1.70;;;1.60;;
8716;SDS011;4395;48.554;8.820;2023-04-24T05:32:03;2.05;;;1.10;;
8716;SDS011;4395;48.554;8.820;2023-04-24T05:34:06;2.53;;;1.48;;
8716;SDS011;4395;48.554;8.820;2023-04-24T05:36:13;1.42;;;1.23;;
8716;SDS011;4395;48.554;8.820;2023-04-24T05:38:16;1.52;;;1.42;;
8716;SDS011;4395;48.554;8.820;2023-04-24T05:40:21;1.73;;;1.58;;
8716;SDS011;4395;48.554;8.820;2023-04-24T05:42:23;1.70;;;1.60;;
8716;SDS011;4395;48.554;8.820;2023-04-24T05:44:26;2.75;;;1.80;;
8716;SDS011;4395;48.554;8.820;2023-04-24T05:46:30;2.80;;;1.33;;
8716;SDS011;4395;48.554;8.820;2023-04-24T05:48:33;2.15;;;1.40;;
8716;SDS011;4395;48.554;8.820;2023-04-24T05:50:37;1.60;;;1.50;;
8716;SDS011;4395;48.554;8.820;2023-04-24T05:52:40;2.70;;;1.80;;
8716;SDS011;4395;48.554;8.820;2023-04-24T05:54:56;2.50;;;1.92;;
8716;SDS011;4395;48.554;8.820;2023-04-24T05:57:04;2.42;;;2.05;;
8716;SDS011;4395;48.554;8.820;2023-04-24T05:59:22;2.58;;;1.98;;
8716;SDS011;4395;48.554;8.820;2023-04-24T06:01:25;3.25;;;2.25;;
8716;SDS011;4395;48.554;8.820;2023-04-24T06:03:40;2.72;;;2.17;;
8716;SDS011;4395;48.554;8.820;2023-04-24T06:05:44;3.58;;;2.17;;
8716;SDS011;4395;48.554;8.820;2023-04-24T06:07:47;1.52;;;1.35;;
8716;SDS011;4395;48.554;8.820;2023-04-24T06:09:51;1.90;;;1.80;;
8716;SDS011;4395;48.554;8.820;2023-04-24T06:11:54;1.58;;;1.48;;
8716;SDS011;4395;48.554;8.820;2023-04-24T06:14:03;3.00;;;1.90;;
8716;SDS011;4395;48.554;8.820;2023-04-24T06:16:11;2.65;;;1.80;;
8716;SDS011;4395;48.554;8.820;2023-04-24T06:18:19;1.50;;;1.40;;
8716;SDS011;4395;48.554;8.820;2023-04-24T06:20:24;2.35;;;1.65;;
8716;SDS011;4395;48.554;8.820;2023-04-24T06:22:27;3.17;;;1.88;;
8716;SDS011;4395;48.554;8.820;2023-04-24T06:24:31;1.75;;;1.65;;
8716;SDS011;4395;48.554;8.820;2023-04-24T06:26:33;3.53;;;1.55;;
8716;SDS011;4395;48.554;8.820;2023-04-24T06:28:36;2.83;;;1.30;;
8716;SDS011;4395;48.554;8.820;2023-04-24T06:30:39;2.80;;;1.40;;
8716;SDS011;4395;48.554;8.820;2023-04-24T06:32:42;1.77;;;1.67;;
8716;SDS011;4395;48.554;8.820;2023-04-24T06:34:45;1.67;;;1.52;;
8716;SDS011;4395;48.554;8.820;2023-04-24T06:36:49;3.03;;;1.63;;
8716;SDS011;4395;48.554;8.820;2023-04-24T06:38:52;3.20;;;1.60;;
8716;SDS011;4395;48.554;8.820;2023-04-24T06:40:54;1.50;;;1.40;;
8716;SDS011;4395;48.554;8.820;2023-04-24T06:42:57;2.20;;;2.00;;
8716;SDS011;4395;48.554;8.820;2023-04-24T06:45:01;1.92;;;1.50;;
8716;SDS011;4395;48.554;8.820;2023-04-24T06:47:04;2.05;;;1.85;;
8716;SDS011;4395;48.554;8.820;2023-04-24T06:49:07;2.40;;;2.20;;
8716;SDS011;4395;48.554;8.820;2023-04-24T06:51:10;2.58;;;2.15;;
8716;SDS011;4395;48.554;8.820;2023-04-24T06:53:14;2.25;;;1.75;;
8716;SDS011;4395;48.554;8.820;2023-04-24T06:55:17;1.67;;;1.42;;
8716;SDS011;4395;48.554;8.820;2023-04-24T06:57:20;1.90;;;1.80;;
8716;SDS011;4395;48.554;8.820;2023-04-24T06:59:23;1.33;;;1.20;;
8716;SDS011;4395;48.554;8.820;2023-04-24T07:01:25;1.38;;;1.27;;
8716;SDS011;4395;48.554;8.820;2023-04-24T07:03:28;1.50;;;1.40;;
8716;SDS011;4395;48.554;8.820;2023-04-24T07:05:32;2.25;;;1.20;;
8716;SDS011;4395;48.554;8.820;2023-04-24T07:07:36;1.08;;;1.00;;
8716;SDS011;4395;48.554;8.820;2023-04-24T07:09:42;2.75;;;1.23;;
8716;SDS011;4395;48.554;8.820;2023-04-24T07:11:46;1.10;;;1.00;;
8716;SDS011;4395;48.554;8.820;2023-04-24T07:13:49;1.08;;;0.98;;
8716;SDS011;4395;48.554;8.820;2023-04-24T07:15:53;1.00;;;0.90;;
8716;SDS011;4395;48.554;8.820;2023-04-24T07:17:57;1.58;;;1.30;;
8716;SDS011;4395;48.554;8.820;2023-04-24T07:20:00;0.95;;;0.82;;
8716;SDS011;4395;48.554;8.820;2023-04-24T07:22:03;1.17;;;1.15;;
8716;SDS011;4395;48.554;8.820;2023-04-24T07:24:05;0.90;;;0.90;;
8716;SDS011;4395;48.554;8.820;2023-04-24T07:26:13;1.30;;;1.20;;
8716;SDS011;4395;48.554;8.820;2023-04-24T07:28:16;1.52;;;1.42;;
8716;SDS011;4395;48.554;8.820;2023-04-24T07:30:19;1.25;;;1.15;;
8716;SDS011;4395;48.554;8.820;2023-04-24T07:32:22;7.60;;;1.58;;
8716;SDS011;4395;48.554;8.820;2023-04-24T07:34:28;1.50;;;1.40;;
8716;SDS011;4395;48.554;8.820;2023-04-24T07:36:31;1.75;;;1.50;;
8716;SDS011;4395;48.554;8.820;2023-04-24T07:38:34;3.05;;;1.50;;
8716;SDS011;4395;48.554;8.820;2023-04-24T07:40:36;3.17;;;1.88;;
8716;SDS011;4395;48.554;8.820;2023-04-24T07:42:40;1.90;;;1.10;;
8716;SDS011;4395;48.554;8.820;2023-04-24T07:44:45;1.63;;;1.20;;
8716;SDS011;4395;48.554;8.820;2023-04-24T07:46:48;4.45;;;1.67;;
8716;SDS011;4395;48.554;8.820;2023-04-24T07:48:51;1.77;;;1.60;;
8716;SDS011;4395;48.554;8.820;2023-04-24T07:51:12;4.20;;;2.28;;
8716;SDS011;4395;48.554;8.820;2023-04-24T07:53:15;2.35;;;1.50;;
8716;SDS011;4395;48.554;8.820;2023-04-24T07:55:17;2.08;;;1.33;;
8716;SDS011;4395;48.554;8.820;2023-04-24T07:57:24;1.30;;;1.20;;
8716;SDS011;4395;48.554;8.820;2023-04-24T07:59:28;1.83;;;1.40;;
8716;SDS011;4395;48.554;8.820;2023-04-24T08:01:31;2.67;;;1.40;;
8716;SDS011;4395;48.554;8.820;2023-04-24T08:03:34;1.70;;;1.40;;
8716;SDS011;4395;48.554;8.820;2023-04-24T08:05:37;2.78;;;1.60;;
8716;SDS011;4395;48.554;8.820;2023-04-24T08:07:41;1.80;;;1.70;;
8716;SDS011;4395;48.554;8.820;2023-04-24T08:09:44;2.38;;;1.70;;
8716;SDS011;4395;48.554;8.820;2023-04-24T08:11:47;7.75;;;2.33;;
8716;SDS011;4395;48.554;8.820;2023-04-24T08:13:50;1.25;;;1.15;;
8716;SDS011;4395;48.554;8.820;2023-04-24T08:15:54;3.40;;;1.40;;
8716;SDS011;4395;48.554;8.820;2023-04-24T08:17:57;1.67;;;1.45;;
8716;SDS011;4395;48.554;8.820;2023-04-24T08:20:00;1.85;;;1.40;;
8716;SDS011;4395;48.554;8.820;2023-04-24T08:22:03;2.65;;;1.48;;
8716;SDS011;4395;48.554;8.820;2023-04-24T08:24:06;1.90;;;1.67;;
8716;SDS011;4395;48.554;8.820;2023-04-24T08:26:09;1.88;;;1.67;;
8716;SDS011;4395;48.554;8.820;2023-04-24T08:28:12;1.30;;;1.20;;
8716;SDS011;4395;48.554;8.820;2023-04-24T08:30:21;2.58;;;1.63;;
8716;SDS011;4395;48.554;8.820;2023-04-24T08:32:25;1.60;;;1.50;;
8716;SDS011;4395;48.554;8.820;2023-04-24T08:34:30;2.45;;;1.73;;
8716;SDS011;4395;48.554;8.820;2023-04-24T08:36:32;2.80;;;1.10;;
8716;SDS011;4395;48.554;8.820;2023-04-24T08:38:47;1.83;;;1.40;;
8716;SDS011;4395;48.554;8.820;2023-04-24T08:40:50;2.10;;;1.27;;
8716;SDS011;4395;48.554;8.820;2023-04-24T08:42:53;1.77;;;1.48;;
8716;SDS011;4395;48.554;8.820;2023-04-24T08:44:57;4.97;;;1.70;;
8716;SDS011;4395;48.554;8.820;2023-04-24T08:47:00;2.15;;;1.27;;
8716;SDS011;4395;48.554;8.820;2023-04-24T08:49:05;2.17;;;1.48;;
8716;SDS011;4395;48.554;8.820;2023-04-24T08:51:08;2.00;;;1.10;;
8716;SDS011;4395;48.554;8.820;2023-04-24T08:53:11;1.92;;;1.17;;
8716;SDS011;4395;48.554;8.820;2023-04-24T08:55:15;2.55;;;1.40;;
8716;SDS011;4395;48.554;8.820;2023-04-24T08:57:19;2.53;;;1.10;;
8716;SDS011;4395;48.554;8.820;2023-04-24T08:59:22;1.55;;;1.30;;
8716;SDS011;4395;48.554;8.820;2023-04-24T09:01:25;1.60;;;1.10;;
8716;SDS011;4395;48.554;8.820;2023-04-24T09:03:30;1.35;;;1.25;;
8716;SDS011;4395;48.554;8.820;2023-04-24T09:05:36;1.17;;;1.00;;
8716;SDS011;4395;48.554;8.820;2023-04-24T09:07:42;1.60;;;1.42;;
8716;SDS011;4395;48.554;8.820;2023-04-24T09:09:48;1.30;;;1.20;;
8716;SDS011;4395;48.554;8.820;2023-04-24T09:11:53;0.90;;;0.90;;
8716;SDS011;4395;48.554;8.820;2023-04-24T09:13:57;3.42;;;1.13;;
8716;SDS011;4395;48.554;8.820;2023-04-24T09:16:00;1.45;;;1.17;;
8716;SDS011;4395;48.554;8.820;2023-04-24T09:18:04;1.65;;;1.35;;
8716;SDS011;4395;48.554;8.820;2023-04-24T09:20:07;1.48;;;1.10;;
8716;SDS011;4395;48.554;8.820;2023-04-24T09:22:12;1.10;;;1.10;;
8716;SDS011;4395;48.554;8.820;2023-04-24T09:24:15;2.65;;;1.15;;
8716;SDS011;4395;48.554;8.820;2023-04-24T09:26:20;2.08;;;1.40;;
8716;SDS011;4395;48.554;8.820;2023-04-24T09:28:25;1.40;;;1.00;;
8716;SDS011;4395;48.554;8.820;2023-04-24T09:30:29;1.13;;;0.98;;
8716;SDS011;4395;48.554;8.820;2023-04-24T09:32:32;2.95;;;1.40;;
8716;SDS011;4395;48.554;8.820;2023-04-24T09:34:35;1.35;;;1.10;;
8716;SDS011;4395;48.554;8.820;2023-04-24T09:36:39;1.70;;;1.20;;
8716;SDS011;4395;48.554;8.820;2023-04-24T09:38:44;4.03;;;1.40;;
8716;SDS011;4395;48.554;8.820;2023-04-24T09:40:47;3.38;;;1.10;;
8716;SDS011;4395;48.554;8.820;2023-04-24T09:42:51;2.10;;;1.45;;
8716;SDS011;4395;48.554;8.820;2023-04-24T09:44:55;2.53;;;1.20;;
8716;SDS011;4395;48.554;8.820;2023-04-24T09:47:12;3.47;;;1.55;;
8716;SDS011;4395;48.554;8.820;2023-04-24T09:49:15;1.20;;;1.10;;
8716;SDS011;4395;48.554;8.820;2023-04-24T09:51:33;0.90;;;0.90;;
8716;SDS011;4395;48.554;8.820;2023-04-24T09:53:37;1.17;;;0.90;;
8716;SDS011;4395;48.554;8.820;2023-04-24T09:55:47;5.20;;;1.30;;
8716;SDS011;4395;48.554;8.820;2023-04-24T09:57:52;1.40;;;1.30;;
8716;SDS011;4395;48.554;8.820;2023-04-24T09:59:57;1.58;;;1.10;;
8716;SDS011;4395;48.554;8.820;2023-04-24T10:02:00;1.90;;;1.15;;
8716;SDS011;4395;48.554;8.820;2023-04-24T10:04:03;1.30;;;1.00;;
8716;SDS011;4395;48.554;8.820;2023-04-24T10:06:06;1.00;;;0.90;;
8716;SDS011;4395;48.554;8.820;2023-04-24T10:08:11;3.00;;;0.90;;
8716;SDS011;4395;48.554;8.820;2023-04-24T10:10:15;1.23;;;1.10;;
8716;SDS011;4395;48.554;8.820;2023-04-24T10:12:20;1.45;;;0.98;;
8716;SDS011;4395;48.554;8.820;2023-04-24T10:14:24;2.03;;;1.10;;
8716;SDS011;4395;48.554;8.820;2023-04-24T10:16:27;2.08;;;1.10;;
8716;SDS011;4395;48.554;8.820;2023-04-24T10:18:30;4.22;;;1.30;;
8716;SDS011;4395;48.554;8.820;2023-04-24T10:20:35;2.80;;;1.33;;
8716;SDS011;4395;48.554;8.820;2023-04-24T10:22:38;1.73;;;1.25;;
8716;SDS011;4395;48.554;8.820;2023-04-24T10:24:42;1.67;;;1.48;;
8716;SDS011;4395;48.554;8.820;2023-04-24T10:26:46;3.72;;;2.22;;
8716;SDS011;4395;48.554;8.820;2023-04-24T10:28:51;2.03;;;1.60;;
8716;SDS011;4395;48.554;8.820;2023-04-24T10:30:55;1.40;;;0.95;;
8716;SDS011;4395;48.554;8.820;2023-04-24T10:32:59;3.08;;;1.20;;
8716;SDS011;4395;48.554;8.820;2023-04-24T10:35:02;1.50;;;1.40;;
8716;SDS011;4395;48.554;8.820;2023-04-24T10:37:05;3.53;;;1.17;;
8716;SDS011;4395;48.554;8.820;2023-04-24T10:39:08;1.95;;;1.23;;
8716;SDS011;4395;48.554;8.820;2023-04-24T10:41:13;2.03;;;1.15;;
8716;SDS011;4395;48.554;8.820;2023-04-24T10:43:17;2.45;;;1.05;;
8716;SDS011;4395;48.554;8.820;2023-04-24T10:45:22;1.20;;;0.88;;
8716;SDS011;4395;48.554;8.820;2023-04-24T10:47:26;2.58;;;1.20;;
8716;SDS011;4395;48.554;8.820;2023-04-24T10:49:29;1.73;;;1.17;;
8716;SDS011;4395;48.554;8.820;2023-04-24T10:51:45;1.10;;;1.00;;
8716;SDS011;4395;48.554;8.820;2023-04-24T10:53:50;1.50;;;1.37;;
8716;SDS011;4395;48.554;8.820;2023-04-24T10:55:57;1.52;;;1.17;;
8716;SDS011;4395;48.554;8.820;2023-04-24T10:58:01;1.63;;;1.33;;
8716;SDS011;4395;48.554;8.820;2023-04-24T11:00:19;1.73;;;0.80;;
8716;SDS011;4395;48.554;8.820;2023-04-24T11:02:35;1.00;;;0.80;;
8716;SDS011;4395;48.554;8.820;2023-04-24T11:04:40;1.17;;;0.80;;
8716;SDS011;4395;48.554;8.820;2023-04-24T11:06:44;1.13;;;1.00;;
8716;SDS011;4395;48.554;8.820;2023-04-24T11:08:48;0.87;;;0.80;;
8716;SDS011;4395;48.554;8.820;2023-04-24T11:10:55;1.60;;;0.75;;
8716;SDS011;4395;48.554;8.820;2023-04-24T11:13:05;1.50;;;0.90;;
8716;SDS011;4395;48.554;8.820;2023-04-24T11:15:11;1.65;;;0.90;;
8716;SDS011;4395;48.554;8.820;2023-04-24T11:17:26;1.92;;;1.00;;
8716;SDS011;4395;48.554;8.820;2023-04-24T11:19:31;3.45;;;0.90;;
8716;SDS011;4395;48.554;8.820;2023-04-24T11:21:41;0.90;;;0.90;;
8716;SDS011;4395;48.554;8.820;2023-04-24T11:23:45;0.98;;;0.88;;
8716;SDS011;4395;48.554;8.820;2023-04-24T11:25:52;1.88;;;0.80;;
8716;SDS011;4395;48.554;8.820;2023-04-24T11:28:14;1.10;;;1.00;;
8716;SDS011;4395;48.554;8.820;2023-04-24T11:30:19;5.13;;;1.27;;
8716;SDS011;4395;48.554;8.820;2023-04-24T11:32:27;2.00;;;1.02;;
8716;SDS011;4395;48.554;8.820;2023-04-24T11:34:31;4.82;;;1.00;;
8716;SDS011;4395;48.554;8.820;2023-04-24T11:36:35;2.40;;;1.02;;
8716;SDS011;4395;48.554;8.820;2023-04-24T11:38:38;2.15;;;0.90;;
8716;SDS011;4395;48.554;8.820;2023-04-24T11:40:41;0.95;;;0.80;;
8716;SDS011;4395;48.554;8.820;2023-04-24T11:42:44;2.10;;;1.10;;
8716;SDS011;4395;48.554;8.820;2023-04-24T11:44:49;1.08;;;0.98;;
8716;SDS011;4395;48.554;8.820;2023-04-24T11:46:52;1.25;;;0.80;;
8716;SDS011;4395;48.554;8.820;2023-04-24T11:48:56;1.83;;;1.45;;
8716;SDS011;4395;48.554;8.820;2023-04-24T11:51:01;1.87;;;1.03;;
8716;SDS011;4395;48.554;8.820;2023-04-24T11:53:04;2.63;;;1.30;;
8716;SDS011;4395;48.554;8.820;2023-04-24T11:55:07;1.70;;;0.90;;
8716;SDS011;4395;48.554;8.820;2023-04-24T11:57:11;6.15;;;1.52;;
8716;SDS011;4395;48.554;8.820;2023-04-24T11:59:14;0.82;;;0.82;;
8716;SDS011;4395;48.554;8.820;2023-04-24T12:01:17;1.58;;;0.90;;
8716;SDS011;4395;48.554;8.820;2023-04-24T12:03:19;1.08;;;0.90;;
8716;SDS011;4395;48.554;8.820;2023-04-24T12:05:24;2.33;;;1.00;;
8716;SDS011;4395;48.554;8.820;2023-04-24T12:07:29;0.90;;;0.90;;
8716;SDS011;4395;48.554;8.820;2023-04-24T12:09:40;1.13;;;1.02;;
8716;SDS011;4395;48.554;8.820;2023-04-24T12:11:52;1.35;;;1.20;;
8716;SDS011;4395;48.554;8.820;2023-04-24T12:13:56;3.13;;;1.83;;
8716;SDS011;4395;48.554;8.820;2023-04-24T12:15:59;2.47;;;1.40;;
8716;SDS011;4395;48.554;8.820;2023-04-24T12:18:04;1.95;;;1.73;;
8716;SDS011;4395;48.554;8.820;2023-04-24T12:20:07;3.25;;;2.00;;
8716;SDS011;4395;48.554;8.820;2023-04-24T12:22:13;2.90;;;1.95;;
8716;SDS011;4395;48.554;8.820;2023-04-24T12:24:15;1.98;;;1.60;;
8716;SDS011;4395;48.554;8.820;2023-04-24T12:26:18;2.00;;;1.50;;
8716;SDS011;4395;48.554;8.820;2023-04-24T12:28:23;3.60;;;1.88;;
8716;SDS011;4395;48.554;8.820;2023-04-24T12:30:26;3.88;;;2.85;;
8716;SDS011;4395;48.554;8.820;2023-04-24T12:32:30;2.72;;;2.47;;
8716;SDS011;4395;48.554;8.820;2023-04-24T12:34:34;2.80;;;2.30;;
8716;SDS011;4395;48.554;8.820;2023-04-24T12:36:37;1.97;;;1.27;;
8716;SDS011;4395;48.554;8.820;2023-04-24T12:38:42;1.20;;;1.10;;
8716;SDS011;4395;48.554;8.820;2023-04-24T12:40:47;3.47;;;1.37;;
8716;SDS011;4395;48.554;8.820;2023-04-24T12:42:50;2.03;;;1.10;;
8716;SDS011;4395;48.554;8.820;2023-04-24T12:44:58;2.33;;;1.70;;
8716;SDS011;4395;48.554;8.820;2023-04-24T12:47:02;3.00;;;2.60;;
8716;SDS011;4395;48.554;8.820;2023-04-24T12:49:05;3.80;;;1.23;;
8716;SDS011;4395;48.554;8.820;2023-04-24T12:51:08;2.13;;;1.50;;
8716;SDS011;4395;48.554;8.820;2023-04-24T12:53:12;2.07;;;1.87;;
8716;SDS011;4395;48.554;8.820;2023-04-24T12:55:16;2.67;;;2.13;;